Time;durP1;ratioP1;P1;durP2;ratioP2;P2;SDS_P1;SDS_P2;PMS_P1;PMS_P2;Temp;Humidity;BMP_temperature;BMP_pressure;BME280_temperature;BME280_humidity;BME280_pressure;Samples;Min_cycle;Max_cycle;Signal;HPM_P1;HPM_P2
2022/07/26 00:01:15;;;;;;;;;0.00;0.00;;;;;20.50;55.38;100912.50;5005805;28;45461;-76
2022/07/26 00:03:41;;;;;;;;;0.00;0.00;;;;;20.39;55.22;100903.22;5015754;28;45267;-77
2022/07/26 00:06:07;;;;;;;;;0.00;0.00;;;;;20.45;55.34;100918.09;4998404;28;46407;-76
2022/07/26 00:08:32;;;;;;;;;0.00;0.00;;;;;20.38;55.77;100916.72;4995839;28;45412;-77
2022/07/26 00:10:58;;;;;;;;;0.00;0.00;;;;;20.37;55.86;100915.84;4997832;28;45391;-76
2022/07/26 00:13:23;;;;;;;;;2.00;1.00;;;;;20.35;55.79;100907.00;4998178;28;45540;-75
2022/07/26 00:15:49;;;;;;;;;0.00;0.00;;;;;20.24;55.84;100893.34;4993333;28;46104;-77
2022/07/26 00:18:15;;;;;;;;;0.00;0.00;;;;;20.32;55.79;100915.22;4981204;28;45420;-77
2022/07/26 00:20:41;;;;;;;;;0.00;0.00;;;;;20.31;55.81;100908.13;4984825;28;45448;-76
2022/07/26 00:23:07;;;;;;;;;1.75;0.00;;;;;20.26;56.00;100912.91;4997197;28;45577;-77
2022/07/26 00:25:32;;;;;;;;;0.25;0.00;;;;;20.19;55.85;100903.44;4997038;28;46373;-75
2022/07/26 00:27:57;;;;;;;;;0.00;0.00;;;;;20.27;55.74;100914.63;5029642;28;45421;-75
2022/07/26 00:30:24;;;;;;;;;1.00;0.00;;;;;20.23;55.53;100927.34;4997200;28;45439;-76
2022/07/26 00:32:51;;;;;;;;;0.00;0.00;;;;;20.16;55.77;100917.03;4997676;28;45345;-76
2022/07/26 00:35:16;;;;;;;;;0.50;0.50;;;;;20.15;55.82;100921.53;4997499;28;45450;-76
2022/07/26 00:37:42;;;;;;;;;0.00;0.00;;;;;20.12;55.78;100910.09;4996357;28;45487;-76
2022/07/26 00:40:08;;;;;;;;;0.00;0.00;;;;;20.08;55.82;100916.59;4997600;28;45403;-75
2022/07/26 00:42:33;;;;;;;;;0.00;0.00;;;;;19.99;55.77;100902.72;4997293;28;45436;-76
2022/07/26 00:44:59;;;;;;;;;0.25;0.00;;;;;20.04;56.10;100921.22;4997345;28;45517;-76
2022/07/26 00:47:25;;;;;;;;;0.00;0.00;;;;;20.00;55.92;100914.31;4992720;28;45366;-76
2022/07/26 00:49:51;;;;;;;;;1.00;0.00;;;;;19.88;56.03;100897.06;4968912;28;45409;-75
2022/07/26 00:52:16;;;;;;;;;0.00;0.00;;;;;19.96;55.97;100921.66;4958645;28;45477;-77
2022/07/26 00:54:44;;;;;;;;;0.00;0.00;;;;;19.89;56.03;100920.28;4957429;28;46121;-76
2022/07/26 00:57:13;;;;;;;;;1.00;1.00;;;;;19.86;56.22;100915.06;4961313;28;45391;-77
2022/07/26 00:59:39;;;;;;;;;0.00;0.00;;;;;19.82;56.51;100921.53;4977157;28;45453;-76
2022/07/26 01:02:08;;;;;;;;;0.50;0.50;;;;;19.74;56.71;100907.63;4977107;28;45411;-76
2022/07/26 01:04:34;;;;;;;;;0.75;0.50;;;;;19.73;56.70;100908.59;4975514;28;46170;-76
2022/07/26 01:07:01;;;;;;;;;0.00;0.00;;;;;19.70;56.93;100909.63;4976723;28;45418;-77
2022/07/26 01:09:26;;;;;;;;;0.00;0.00;;;;;19.62;57.10;100907.34;4978150;28;45298;-77
2022/07/26 01:11:52;;;;;;;;;0.25;0.25;;;;;19.68;57.01;100909.69;4977268;28;45703;-77
2022/07/26 01:14:20;;;;;;;;;0.00;0.00;;;;;19.56;57.10;100896.09;4977222;28;46050;-77
2022/07/26 01:16:45;;;;;;;;;0.00;0.00;;;;;19.60;57.04;100905.69;4978446;28;45465;-76
2022/07/26 01:19:11;;;;;;;;;0.00;0.00;;;;;19.53;57.10;100891.75;4978586;28;45471;-77
2022/07/26 01:21:36;;;;;;;;;0.00;0.00;;;;;19.64;56.97;100909.94;4978651;28;45479;-76
2022/07/26 01:24:02;;;;;;;;;0.00;0.00;;;;;19.60;57.10;100906.56;4975474;28;45936;-76
2022/07/26 01:26:27;;;;;;;;;0.00;0.00;;;;;19.56;57.30;100904.13;4977078;28;45333;-77
2022/07/26 01:28:53;;;;;;;;;0.00;0.00;;;;;19.53;57.54;100914.03;4998328;28;45337;-76
2022/07/26 01:31:18;;;;;;;;;0.00;0.00;;;;;19.45;57.79;100893.94;4999374;28;45319;-78
2022/07/26 01:33:44;;;;;;;;;0.00;0.00;;;;;19.41;57.83;100897.75;5000082;28;46172;-77
2022/07/26 01:36:11;;;;;;;;;0.00;0.00;;;;;19.47;58.07;100909.00;4995595;28;45316;-76
2022/07/26 01:38:36;;;;;;;;;0.00;0.00;;;;;19.46;58.25;100906.41;4991859;28;45352;-77
2022/07/26 01:41:02;;;;;;;;;0.00;0.00;;;;;19.42;58.25;100903.03;4981091;28;45344;-76
2022/07/26 01:43:27;;;;;;;;;2.25;0.00;;;;;19.29;58.25;100894.75;4985648;28;46107;-78
2022/07/26 01:45:52;;;;;;;;;1.00;1.00;;;;;19.36;58.24;100908.72;4974248;28;45423;-76
2022/07/26 01:48:19;;;;;;;;;0.00;0.00;;;;;19.33;58.57;100900.81;4999144;28;45430;-77
2022/07/26 01:50:44;;;;;;;;;0.75;0.00;;;;;19.32;58.16;100905.28;4998149;28;45428;-77
2022/07/26 01:53:10;;;;;;;;;0.00;0.00;;;;;19.31;58.50;100900.91;4998664;28;46266;-77
2022/07/26 01:55:35;;;;;;;;;0.00;0.00;;;;;19.27;58.44;100896.63;4996343;28;45437;-77
2022/07/26 01:58:02;;;;;;;;;0.00;0.00;;;;;19.30;58.67;100909.03;4995605;28;45509;-76
2022/07/26 02:00:27;;;;;;;;;0.00;0.00;;;;;19.31;58.68;100902.69;4996501;28;45386;-77
2022/07/26 02:02:53;;;;;;;;;1.00;1.00;;;;;19.18;58.85;100886.41;4996434;28;46239;-77
2022/07/26 02:05:18;;;;;;;;;0.00;0.00;;;;;19.23;59.10;100903.09;4995791;28;45485;-77
2022/07/26 02:07:44;;;;;;;;;0.00;0.00;;;;;19.21;59.23;100907.66;5007322;28;45451;-76
2022/07/26 02:10:11;;;;;;;;;1.00;1.00;;;;;19.20;59.19;100905.06;5015548;28;45414;-76
2022/07/26 02:12:37;;;;;;;;;0.00;0.00;;;;;19.16;59.32;100915.06;5017511;28;45567;-76
2022/07/26 02:15:07;;;;;;;;;0.00;0.00;;;;;19.10;59.53;100904.66;5015253;28;45450;-77
2022/07/26 02:17:33;;;;;;;;;0.00;0.00;;;;;19.07;59.85;100902.13;5006312;28;45682;-76
2022/07/26 02:19:58;;;;;;;;;0.00;0.00;;;;;19.06;60.01;100908.44;4996864;28;45488;-77
2022/07/26 02:22:24;;;;;;;;;0.00;0.00;;;;;19.03;60.00;100908.59;4995485;28;47397;-77
2022/07/26 02:24:49;;;;;;;;;0.50;0.00;;;;;19.00;60.02;100902.44;4995834;28;45308;-77
2022/07/26 02:27:15;;;;;;;;;0.75;0.00;;;;;18.98;60.44;100906.16;4996184;28;45388;-76
2022/07/26 02:29:41;;;;;;;;;1.00;0.00;;;;;18.91;60.46;100897.56;4996770;28;45398;-77
2022/07/26 02:32:06;;;;;;;;;0.00;0.00;;;;;18.85;60.57;100895.19;4997024;28;46415;-76
2022/07/26 02:34:32;;;;;;;;;0.00;0.00;;;;;18.85;60.56;100900.53;4997936;28;45324;-76
2022/07/26 02:36:58;;;;;;;;;0.00;0.00;;;;;18.90;60.87;100909.19;4996276;28;45375;-76
2022/07/26 02:39:26;;;;;;;;;0.00;0.00;;;;;18.87;61.19;100909.34;4995148;28;45388;-77
2022/07/26 02:41:53;;;;;;;;;0.00;0.00;;;;;18.87;61.29;100913.84;5009035;28;46088;-77
2022/07/26 02:44:19;;;;;;;;;0.00;0.00;;;;;18.78;61.15;100896.38;4995304;28;45510;-76
2022/07/26 02:46:44;;;;;;;;;0.25;0.00;;;;;18.85;61.31;100910.34;4994705;28;45461;-76
2022/07/26 02:49:09;;;;;;;;;0.00;0.00;;;;;18.79;61.46;100901.66;4993632;28;45546;-77
2022/07/26 02:51:35;;;;;;;;;0.00;0.00;;;;;18.83;61.22;100913.09;4995680;28;46959;-76
2022/07/26 02:54:00;;;;;;;;;0.25;0.00;;;;;18.80;61.58;100911.44;4995469;28;45518;-76
2022/07/26 02:56:25;;;;;;;;;2.50;0.00;;;;;18.78;61.62;100912.44;4994768;28;45498;-79
2022/07/26 02:58:51;;;;;;;;;0.00;0.00;;;;;18.77;61.86;100908.06;4997151;28;45415;-78
2022/07/26 03:01:16;;;;;;;;;0.00;0.00;;;;;18.73;62.10;100906.47;4994439;28;46100;-77
2022/07/26 03:03:41;;;;;;;;;0.00;0.00;;;;;18.67;61.95;100912.13;4995571;28;45468;-77
2022/07/26 03:06:07;;;;;;;;;0.00;0.00;;;;;18.63;62.04;100898.88;4995072;28;45343;-77
2022/07/26 03:08:34;;;;;;;;;1.50;0.00;;;;;18.65;62.19;100907.69;4994694;28;45433;-77
2022/07/26 03:10:59;;;;;;;;;0.00;0.00;;;;;18.64;62.46;100913.13;4993021;28;46381;-77
2022/07/26 03:13:25;;;;;;;;;0.00;0.00;;;;;18.62;62.63;100913.19;4995264;28;45352;-77
2022/07/26 03:15:51;;;;;;;;;0.75;0.00;;;;;18.56;62.70;100910.81;5013660;28;45424;-76
2022/07/26 03:18:17;;;;;;;;;0.00;0.00;;;;;18.55;62.73;100911.75;4994686;28;45500;-76
2022/07/26 03:20:42;;;;;;;;;1.50;0.00;;;;;18.57;62.66;100915.25;4994640;28;45432;-76
2022/07/26 03:23:08;;;;;;;;;0.25;0.25;;;;;18.54;62.94;100914.50;4994054;28;45302;-77
2022/07/26 03:25:33;;;;;;;;;1.00;1.00;;;;;18.51;63.04;100915.53;4994831;28;45325;-78
2022/07/26 03:27:58;;;;;;;;;0.00;0.00;;;;;18.50;63.08;100910.25;4995838;28;45297;-77
2022/07/26 03:30:24;;;;;;;;;1.00;0.00;;;;;18.48;63.35;100918.34;4993628;28;45442;-75
2022/07/26 03:32:50;;;;;;;;;0.00;0.00;;;;;18.49;63.00;100920.06;4994449;28;45712;-77
2022/07/26 03:35:16;;;;;;;;;1.00;1.00;;;;;18.45;63.24;100921.19;4993868;28;45555;-76
2022/07/26 03:37:42;;;;;;;;;0.00;0.00;;;;;18.43;63.32;100917.69;4995844;28;45354;-76
2022/07/26 03:40:08;;;;;;;;;0.50;0.50;;;;;18.40;63.54;100920.50;4993821;28;46111;-76
2022/07/26 03:42:35;;;;;;;;;1.00;0.00;;;;;18.41;63.51;100927.63;4994800;28;45467;-75
2022/07/26 03:45:00;;;;;;;;;0.00;0.00;;;;;18.40;63.92;100925.88;4994518;28;45422;-75
2022/07/26 03:47:26;;;;;;;;;0.00;0.00;;;;;18.42;63.83;100934.72;4993184;28;45469;-77
2022/07/26 03:49:51;;;;;;;;;0.00;0.00;;;;;18.39;64.20;100930.38;4993933;28;45440;-77
2022/07/26 03:52:16;;;;;;;;;1.50;0.00;;;;;18.39;64.29;100933.03;4994910;28;45588;-76
2022/07/26 03:54:42;;;;;;;;;0.00;0.00;;;;;18.36;64.28;100926.97;4994039;28;45574;-78
2022/07/26 03:57:07;;;;;;;;;0.00;0.00;;;;;18.39;64.15;100937.53;4994228;28;45523;-77
2022/07/26 03:59:33;;;;;;;;;1.00;1.00;;;;;18.37;64.29;100926.00;4996817;28;46409;-76
2022/07/26 04:01:58;;;;;;;;;3.00;1.50;;;;;18.23;64.39;100908.78;4997108;28;45453;-77
2022/07/26 04:04:23;;;;;;;;;1.00;1.00;;;;;18.40;64.42;100925.88;4995022;28;45484;-77
2022/07/26 04:06:49;;;;;;;;;2.00;0.00;;;;;18.40;64.46;100932.09;4994533;28;45478;-76
2022/07/26 04:09:15;;;;;;;;;1.25;0.00;;;;;18.42;64.67;100929.34;5001452;28;45359;-76
2022/07/26 04:11:42;;;;;;;;;1.00;1.00;;;;;18.42;64.54;100932.03;5009386;28;45591;-77
2022/07/26 04:14:07;;;;;;;;;0.00;0.00;;;;;18.45;64.67;100935.41;4994338;28;45369;-77
2022/07/26 04:16:34;;;;;;;;;0.00;0.00;;;;;18.47;64.72;100938.03;4994341;28;45597;-76
2022/07/26 04:19:00;;;;;;;;;0.75;0.50;;;;;18.49;64.69;100936.13;4993126;28;45509;-77
2022/07/26 04:21:25;;;;;;;;;0.25;0.25;;;;;18.51;64.84;100936.94;4994028;28;45466;-76
2022/07/26 04:23:51;;;;;;;;;0.00;0.00;;;;;18.53;64.39;100939.56;4994824;28;45423;-77
2022/07/26 04:26:19;;;;;;;;;1.00;0.00;;;;;18.57;64.47;100933.97;5009451;28;45411;-77
2022/07/26 04:28:44;;;;;;;;;0.00;0.00;;;;;18.58;64.44;100935.69;5014188;28;45296;-76
2022/07/26 04:31:10;;;;;;;;;0.00;0.00;;;;;18.52;64.50;100919.94;5014279;28;45368;-77
2022/07/26 04:33:35;;;;;;;;;1.00;1.00;;;;;18.63;64.42;100939.03;5015862;28;45424;-77
2022/07/26 04:36:01;;;;;;;;;1.00;1.00;;;;;18.63;64.55;100936.34;4993665;28;45345;-77
2022/07/26 04:38:26;;;;;;;;;0.25;0.25;;;;;18.61;64.70;100926.66;4993482;28;45291;-77
2022/07/26 04:40:52;;;;;;;;;0.00;0.00;;;;;18.63;64.61;100931.00;5000736;28;45517;-76
2022/07/26 04:43:18;;;;;;;;;0.00;0.00;;;;;18.68;64.84;100937.94;4993763;28;45308;-78
2022/07/26 04:45:44;;;;;;;;;0.00;0.00;;;;;18.75;64.24;100947.41;4993781;28;45587;-77
2022/07/26 04:48:10;;;;;;;;;1.50;0.50;;;;;18.75;64.38;100947.41;4994204;28;46301;-78
2022/07/26 04:50:35;;;;;;;;;0.00;0.00;;;;;18.73;64.45;100943.94;4997356;28;45389;-76
2022/07/26 04:53:01;;;;;;;;;1.75;1.75;;;;;18.73;64.53;100936.78;4996863;28;45506;-77
2022/07/26 04:55:27;;;;;;;;;1.00;1.00;;;;;18.85;64.32;100956.75;4997012;28;45549;-77
2022/07/26 04:57:52;;;;;;;;;0.00;0.00;;;;;18.80;64.42;100940.03;4996864;28;45545;-77
2022/07/26 05:00:23;;;;;;;;;3.00;2.00;;;;;18.88;64.46;100963.78;4996821;28;45484;-77
2022/07/26 05:02:54;;;;;;;;;1.00;0.00;;;;;18.87;64.49;100946.84;4998525;28;45510;-75
2022/07/26 05:05:21;;;;;;;;;0.00;0.00;;;;;18.88;64.41;100950.41;5001130;28;45654;-77
2022/07/26 05:07:52;;;;;;;;;1.25;0.00;;;;;18.92;64.41;100958.22;4997502;28;46004;-77
2022/07/26 05:10:19;;;;;;;;;1.75;1.25;;;;;18.93;64.33;100954.59;4995916;28;45438;-77
2022/07/26 05:12:45;;;;;;;;;0.00;0.00;;;;;18.97;64.51;100966.00;4999481;28;45317;-76
2022/07/26 05:15:11;;;;;;;;;0.50;0.50;;;;;18.97;64.29;100966.88;4998316;28;45347;-75
2022/07/26 05:17:38;;;;;;;;;4.50;0.50;;;;;18.98;64.06;100959.72;4998557;28;46762;-76
2022/07/26 05:20:05;;;;;;;;;1.00;1.00;;;;;19.00;63.98;100964.03;5012883;28;45511;-76
2022/07/26 05:22:30;;;;;;;;;1.00;1.00;;;;;19.03;64.03;100967.53;4997219;28;45368;-77
2022/07/26 05:24:56;;;;;;;;;0.50;0.00;;;;;19.07;64.30;100964.63;5006331;28;45582;-77
2022/07/26 05:27:21;;;;;;;;;2.75;1.75;;;;;19.06;64.27;100957.53;5015947;28;45620;-77
2022/07/26 05:29:47;;;;;;;;;1.25;1.25;;;;;19.18;63.48;100972.13;5015307;28;45425;-77
2022/07/26 05:32:12;;;;;;;;;1.75;0.75;;;;;19.19;63.65;100973.84;5016658;28;45491;-76
2022/07/26 05:34:37;;;;;;;;;2.00;0.75;;;;;19.25;63.90;100980.72;5010682;28;45385;-77
2022/07/26 05:37:03;;;;;;;;;1.00;1.00;;;;;19.25;63.46;100984.28;5000071;28;45440;-78
2022/07/26 05:39:28;;;;;;;;;1.00;1.00;;;;;19.27;63.63;100971.66;5006969;28;45319;-76
2022/07/26 05:41:54;;;;;;;;;3.00;1.00;;;;;19.29;63.57;100984.97;5004011;28;45436;-76
2022/07/26 05:44:19;;;;;;;;;0.50;0.50;;;;;19.29;63.45;100988.53;4999575;28;45346;-77
2022/07/26 05:46:44;;;;;;;;;2.00;1.00;;;;;19.24;63.54;100969.13;4998724;28;45447;-78
2022/07/26 05:49:10;;;;;;;;;1.00;1.00;;;;;19.31;63.44;100977.72;4994440;28;45409;-77
2022/07/26 05:51:35;;;;;;;;;0.75;0.75;;;;;19.37;63.21;100981.91;4996246;28;45328;-77
2022/07/26 05:54:00;;;;;;;;;3.00;1.50;;;;;19.09;63.11;100930.59;4996644;28;45344;-76
2022/07/26 05:56:26;;;;;;;;;0.00;0.00;;;;;19.45;63.06;100982.38;4996365;28;46227;-75
2022/07/26 05:58:51;;;;;;;;;1.00;1.00;;;;;19.44;62.94;100972.63;4995350;28;45457;-77
2022/07/26 06:01:17;;;;;;;;;3.00;2.00;;;;;19.51;62.77;100979.38;5011582;28;45810;-78
2022/07/26 06:03:42;;;;;;;;;0.00;0.00;;;;;19.56;62.72;100979.19;4996601;28;45405;-78
2022/07/26 06:06:08;;;;;;;;;1.25;1.00;;;;;19.55;62.92;100974.75;4996708;28;45995;-77
2022/07/26 06:08:34;;;;;;;;;0.25;0.00;;;;;19.57;62.71;100973.75;4999257;28;45409;-78
2022/07/26 06:11:00;;;;;;;;;0.25;0.25;;;;;19.55;62.67;100972.06;4997330;28;45337;-77
2022/07/26 06:13:26;;;;;;;;;1.00;1.00;;;;;19.65;62.47;100982.25;4996621;28;45392;-77
2022/07/26 06:15:51;;;;;;;;;1.00;1.00;;;;;19.50;62.63;100961.59;4996003;28;45459;-76
2022/07/26 06:18:17;;;;;;;;;1.00;0.75;;;;;19.64;62.25;100974.28;4995660;28;45626;-76
2022/07/26 06:20:44;;;;;;;;;2.50;2.50;;;;;19.77;62.25;100998.63;4995337;28;45372;-76
2022/07/26 06:23:11;;;;;;;;;0.75;0.75;;;;;19.79;62.28;100994.97;4999244;28;45573;-77
2022/07/26 06:25:37;;;;;;;;;1.00;1.00;;;;;19.82;62.20;101004.69;5014429;28;45373;-77
2022/07/26 06:28:07;;;;;;;;;3.50;0.00;;;;;19.84;62.48;101006.34;5018117;28;45462;-77
2022/07/26 06:30:33;;;;;;;;;1.00;1.00;;;;;19.84;62.10;101000.09;5016979;28;45480;-76
2022/07/26 06:32:59;;;;;;;;;1.00;0.00;;;;;19.75;62.25;100982.63;5015796;28;45392;-77
2022/07/26 06:35:29;;;;;;;;;1.00;1.00;;;;;19.86;62.28;101003.56;4994853;28;45607;-76
2022/07/26 06:37:55;;;;;;;;;1.00;1.00;;;;;19.87;62.35;101008.84;4995006;28;45515;-76
2022/07/26 06:40:21;;;;;;;;;1.25;1.25;;;;;19.84;62.06;100994.72;4996102;28;45490;-77
2022/07/26 06:42:46;;;;;;;;;1.00;1.00;;;;;19.91;62.11;101008.69;4998552;28;45487;-77
2022/07/26 06:45:11;;;;;;;;;1.00;1.00;;;;;19.95;62.02;101007.56;4995258;28;46189;-76
2022/07/26 06:47:37;;;;;;;;;0.50;0.25;;;;;19.99;62.15;101001.97;5010967;28;45533;-78
2022/07/26 06:50:03;;;;;;;;;1.00;1.00;;;;;19.99;61.80;100995.75;4996112;28;45348;-76
2022/07/26 06:52:29;;;;;;;;;1.00;0.00;;;;;20.09;61.66;101001.47;4998972;28;45530;-83
2022/07/26 06:54:54;;;;;;;;;1.00;1.00;;;;;20.11;61.49;101000.44;5001125;28;45601;-77
2022/07/26 06:57:20;;;;;;;;;2.00;0.00;;;;;20.05;61.36;100988.22;4995919;28;45282;-76
2022/07/26 06:59:46;;;;;;;;;1.00;1.00;;;;;20.08;61.41;100989.03;4994442;28;45333;-77
2022/07/26 07:02:12;;;;;;;;;0.50;0.50;;;;;20.15;61.83;101009.22;4995221;28;45354;-77
2022/07/26 07:04:37;;;;;;;;;1.00;1.00;;;;;20.11;61.42;100995.09;4995283;28;45269;-77
2022/07/26 07:07:04;;;;;;;;;1.00;1.00;;;;;20.15;61.07;100995.81;4995592;28;45367;-77
2022/07/26 07:09:31;;;;;;;;;0.00;0.00;;;;;20.19;61.21;101010.78;4995060;28;45406;-77
2022/07/26 07:11:56;;;;;;;;;5.50;0.00;;;;;20.29;61.00;101008.47;5012179;28;45434;-77
2022/07/26 07:14:21;;;;;;;;;1.00;1.00;;;;;20.32;60.86;100998.44;5015680;28;46180;-77
2022/07/26 07:16:47;;;;;;;;;5.50;1.00;;;;;20.42;60.70;101006.84;5015496;28;45486;-77
2022/07/26 07:19:12;;;;;;;;;1.75;1.75;;;;;20.52;60.78;101016.13;5015600;28;45461;-77
2022/07/26 07:21:38;;;;;;;;;0.75;0.75;;;;;20.17;60.76;100940.22;4997485;28;45375;-78
2022/07/26 07:24:04;;;;;;;;;2.00;2.00;;;;;20.69;60.25;101011.69;4995628;28;45989;-77
2022/07/26 07:26:30;;;;;;;;;2.50;1.50;;;;;20.77;59.32;101021.06;4997190;28;45402;-78
2022/07/26 07:28:55;;;;;;;;;1.75;1.00;;;;;20.81;59.88;101020.88;4995751;28;45438;-79
2022/07/26 07:31:20;;;;;;;;;1.25;1.00;;;;;20.85;59.19;101017.06;4997102;28;45634;-79
2022/07/26 07:33:46;;;;;;;;;1.25;1.25;;;;;20.88;58.97;101017.75;4997093;28;46256;-77
2022/07/26 07:36:11;;;;;;;;;0.00;0.00;;;;;20.97;59.72;101019.06;4994247;28;45403;-76
2022/07/26 07:38:36;;;;;;;;;0.50;0.50;;;;;21.04;58.58;101019.56;5015246;28;45318;-76
2022/07/26 07:41:02;;;;;;;;;1.00;1.00;;;;;21.03;58.37;101005.28;5007593;28;45587;-75
2022/07/26 07:43:27;;;;;;;;;1.75;1.75;;;;;21.21;57.90;101015.91;4993216;28;46256;-80
2022/07/26 07:45:53;;;;;;;;;0.75;0.00;;;;;21.28;57.84;101022.69;4997084;28;45331;-79
2022/07/26 07:48:18;;;;;;;;;2.50;1.75;;;;;21.35;57.38;101015.09;4997200;28;45325;-77
2022/07/26 07:50:44;;;;;;;;;1.00;1.00;;;;;21.29;57.01;101006.47;4994894;28;45586;-78
2022/07/26 07:53:09;;;;;;;;;3.00;0.75;;;;;21.43;56.66;101018.22;4996659;28;45440;-79
2022/07/26 07:55:34;;;;;;;;;0.25;0.25;;;;;21.37;56.40;101003.31;4994827;28;45514;-79
2022/07/26 07:58:00;;;;;;;;;1.00;1.00;;;;;21.54;56.86;101026.56;4995477;28;45491;-78
2022/07/26 08:00:25;;;;;;;;;1.00;1.00;;;;;21.64;56.35;101011.63;4993932;28;45435;-79
2022/07/26 08:02:51;;;;;;;;;2.00;1.75;;;;;21.74;55.80;101025.41;4994621;28;46202;-79
2022/07/26 08:05:16;;;;;;;;;1.00;0.00;;;;;21.80;55.53;101016.06;4992386;28;45538;-80
2022/07/26 08:07:42;;;;;;;;;1.25;1.25;;;;;21.74;55.30;101003.00;4992833;28;45447;-79
2022/07/26 08:10:08;;;;;;;;;2.00;2.00;;;;;21.97;54.60;101020.41;4993188;28;45408;-80
2022/07/26 08:12:33;;;;;;;;;3.00;1.25;;;;;22.06;54.11;101019.00;4993681;28;46415;-80
2022/07/26 08:14:58;;;;;;;;;1.00;1.00;;;;;22.13;53.60;101021.22;4996723;28;45424;-78
2022/07/26 08:17:24;;;;;;;;;0.00;0.00;;;;;22.28;53.46;101018.56;4999530;28;45428;-79
2022/07/26 08:19:49;;;;;;;;;1.00;1.00;;;;;22.42;52.72;101021.25;4996547;28;45537;-77
2022/07/26 08:22:15;;;;;;;;;1.25;1.25;;;;;22.48;52.65;101018.19;4994350;28;45708;-77
2022/07/26 08:24:40;;;;;;;;;2.75;1.00;;;;;22.60;52.30;101018.38;4997459;28;45495;-79
2022/07/26 08:27:06;;;;;;;;;4.00;1.00;;;;;22.66;51.82;101015.28;4994977;28;45594;-80
2022/07/26 08:29:31;;;;;;;;;0.50;0.50;;;;;22.71;51.58;101013.16;4995853;28;45781;-77
2022/07/26 08:31:57;;;;;;;;;0.00;0.00;;;;;22.80;51.55;101017.94;4995546;28;46755;-78
2022/07/26 08:34:23;;;;;;;;;0.00;0.00;;;;;22.83;52.17;101023.16;4996020;28;45429;-76
2022/07/26 08:36:48;;;;;;;;;0.50;0.50;;;;;23.00;51.59;101030.16;4997641;28;45581;-78
2022/07/26 08:39:14;;;;;;;;;1.00;1.00;;;;;23.05;50.84;101021.78;4995260;28;45461;-74
2022/07/26 08:41:41;;;;;;;;;2.00;0.00;;;;;23.07;51.31;101009.03;4996640;28;45495;-75
2022/07/26 08:44:08;;;;;;;;;0.50;0.50;;;;;23.16;50.43;101008.47;4996589;28;45384;-75
2022/07/26 08:46:36;;;;;;;;;0.00;0.00;;;;;23.32;50.75;101034.41;4977258;28;45404;-75
2022/07/26 08:49:03;;;;;;;;;0.25;0.25;;;;;23.41;50.29;101025.69;4997173;28;45506;-75
2022/07/26 08:51:30;;;;;;;;;0.00;0.00;;;;;23.40;49.78;101032.94;4981776;28;47008;-76
2022/07/26 08:53:58;;;;;;;;;1.00;1.00;;;;;23.33;49.55;101022.66;4995475;28;45484;-76
2022/07/26 08:56:23;;;;;;;;;2.00;0.00;;;;;23.38;49.29;101031.28;4997573;28;45389;-76
2022/07/26 08:58:49;;;;;;;;;2.75;0.25;;;;;23.44;49.73;101028.19;5008269;28;45676;-87
2022/07/26 09:01:14;;;;;;;;;2.00;2.00;;;;;23.48;49.86;101027.03;5019454;28;47600;-87
2022/07/26 09:03:41;;;;;;;;;0.75;0.75;;;;;23.42;48.81;101020.19;5021827;28;45409;-87
2022/07/26 09:06:18;;;;;;;;;0.00;0.00;;;;;23.46;49.13;101030.78;4995014;28;45329;-73
2022/07/26 09:08:48;;;;;;;;;3.75;1.00;;;;;23.42;49.35;101030.13;5005313;28;45392;-75
2022/07/26 09:11:23;;;;;;;;;2.00;1.00;;;;;23.43;49.18;101048.06;4994667;28;48406;-75
2022/07/26 09:13:54;;;;;;;;;0.75;0.75;;;;;23.38;49.73;101037.56;4993811;28;45464;-73
2022/07/26 09:16:19;;;;;;;;;0.00;0.00;;;;;23.43;49.56;101037.28;4994118;28;45435;-75
2022/07/26 09:18:45;;;;;;;;;1.00;0.00;;;;;23.46;49.90;101046.97;4993125;28;45558;-76
2022/07/26 09:21:35;;;;;;;;;1.00;0.00;;;;;23.41;49.72;101049.97;4996615;28;45509;-75
2022/07/26 09:24:01;;;;;;;;;0.00;0.00;;;;;23.39;49.78;101051.91;4994173;28;45422;-75
2022/07/26 09:26:27;;;;;;;;;1.00;1.00;;;;;23.44;49.58;101055.16;4994438;28;45571;-73
2022/07/26 09:29:09;;;;;;;;;3.75;1.00;;;;;23.49;49.16;101041.38;4994400;28;45430;-75
2022/07/26 09:31:37;;;;;;;;;0.75;0.75;;;;;23.46;49.12;101055.94;4994016;28;46020;-76
2022/07/26 09:34:04;;;;;;;;;0.75;0.75;;;;;23.47;49.15;101036.06;4998248;28;45783;-75
2022/07/26 09:36:29;;;;;;;;;0.75;0.75;;;;;23.56;48.77;101048.97;4994205;28;45588;-75
2022/07/26 09:39:00;;;;;;;;;1.00;1.00;;;;;23.60;49.07;101061.25;4989273;28;45676;-75
2022/07/26 09:41:32;;;;;;;;;0.00;0.00;;;;;23.67;49.02;101050.06;4994024;28;45404;-75
2022/07/26 09:43:59;;;;;;;;;2.00;1.00;;;;;23.77;48.17;101056.56;4994613;28;45935;-75
2022/07/26 09:46:29;;;;;;;;;1.25;1.25;;;;;23.81;48.43;101047.28;4996803;28;45491;-74
2022/07/26 09:48:56;;;;;;;;;0.50;0.50;;;;;24.05;47.93;101060.09;4995649;28;45399;-75
2022/07/26 09:51:38;;;;;;;;;1.00;0.00;;;;;24.21;47.22;101062.59;5008415;28;45530;-75
2022/07/26 10:49:28;;;;;;;;;1.00;1.00;;;;;24.46;41.48;101064.41;5085140;27;45474;-77
2022/07/26 10:52:11;;;;;;;;;2.75;1.50;;;;;24.68;38.91;101060.25;5068648;28;45442;-81
2022/07/26 10:54:55;;;;;;;;;0.25;0.25;;;;;25.05;39.32;101065.66;5068865;27;45418;-83
2022/07/26 10:57:28;;;;;;;;;0.75;0.75;;;;;25.33;38.59;101051.84;5052776;28;45432;-77
2022/07/26 10:59:57;;;;;;;;;2.00;1.00;;;;;25.77;39.80;101056.72;5060670;28;45551;-77
2022/07/26 11:02:31;;;;;;;;;2.00;2.00;;;;;25.94;37.49;101052.72;5052259;28;45511;-77
2022/07/26 11:04:59;;;;;;;;;2.50;2.50;;;;;26.17;38.10;101061.78;5064034;27;45469;-77
2022/07/26 11:07:25;;;;;;;;;1.00;1.00;;;;;26.30;37.58;101054.41;5067007;27;45462;-79
2022/07/26 11:09:55;;;;;;;;;1.00;1.00;;;;;26.55;36.95;101052.47;5070987;27;46985;-78
2022/07/26 11:12:22;;;;;;;;;1.75;1.75;;;;;26.52;36.07;101045.44;5069090;28;45536;-78
2022/07/26 11:14:48;;;;;;;;;1.00;1.00;;;;;26.75;36.08;101043.63;5068953;28;45536;-76
2022/07/26 11:17:27;;;;;;;;;1.00;1.00;;;;;26.90;35.92;101030.63;5068958;28;45651;-74
2022/07/26 11:19:54;;;;;;;;;2.75;1.25;;;;;26.97;35.90;101031.00;5066481;28;47066;-75
2022/07/26 11:22:20;;;;;;;;;1.00;1.00;;;;;27.17;35.06;101042.06;5070456;27;45824;-75
2022/07/26 11:24:46;;;;;;;;;1.50;1.50;;;;;27.43;34.45;101040.75;5064692;28;45500;-76
2022/07/26 11:27:11;;;;;;;;;3.00;3.00;;;;;27.58;33.73;101025.03;5069392;28;45550;-74
2022/07/26 11:29:38;;;;;;;;;0.50;0.50;;;;;27.98;35.48;101037.06;5069217;28;47816;-74
2022/07/26 11:32:04;;;;;;;;;0.50;0.50;;;;;28.39;32.51;101026.31;5069624;28;45606;-75
2022/07/26 11:34:33;;;;;;;;;1.25;1.25;;;;;28.63;31.88;101037.72;5069394;27;45461;-75
2022/07/26 11:37:00;;;;;;;;;1.50;1.50;;;;;28.85;32.74;101030.38;5068189;28;45742;-74
2022/07/26 11:39:34;;;;;;;;;1.50;1.50;;;;;29.10;32.31;101031.72;5070232;27;46187;-79
2022/07/26 11:42:03;;;;;;;;;3.00;3.00;;;;;29.14;32.61;101011.38;5067844;27;45737;-78
2022/07/26 11:44:30;;;;;;;;;1.25;1.25;;;;;29.23;32.19;101028.78;5068471;28;45538;-80
2022/07/26 11:46:58;;;;;;;;;3.00;3.00;;;;;29.05;32.45;101026.69;5051322;28;45456;-80
2022/07/26 11:49:29;;;;;;;;;2.75;1.50;;;;;28.93;33.11;101032.41;5074481;27;46504;-80
2022/07/26 11:51:58;;;;;;;;;1.75;1.75;;;;;28.78;31.92;101030.06;5083574;27;45578;-79
2022/07/26 11:54:30;;;;;;;;;1.00;1.00;;;;;28.52;32.99;101035.94;5079860;27;45497;-78
2022/07/26 11:57:03;;;;;;;;;1.00;1.00;;;;;28.36;32.70;101035.56;5085513;27;45525;-79
2022/07/26 11:59:31;;;;;;;;;5.00;1.50;;;;;28.26;33.57;101031.97;5083707;27;45424;-79
2022/07/26 12:01:58;;;;;;;;;0.75;0.75;;;;;28.24;33.60;101037.53;5060219;28;45407;-79
2022/07/26 12:04:27;;;;;;;;;1.50;1.50;;;;;28.10;34.30;101036.00;5063821;28;45458;-80
2022/07/26 12:06:55;;;;;;;;;1.75;1.75;;;;;27.90;34.38;101026.00;5067040;27;45417;-78
2022/07/26 12:09:28;;;;;;;;;3.75;3.75;;;;;27.76;34.15;101025.31;5066781;28;45531;-78
2022/07/26 12:11:53;;;;;;;;;0.50;0.50;;;;;27.63;34.65;101027.38;5078218;28;45405;-80
2022/07/26 12:14:26;;;;;;;;;2.50;2.50;;;;;27.51;34.76;101039.25;5073826;27;45384;-81
2022/07/26 12:16:52;;;;;;;;;1.25;1.25;;;;;27.44;35.72;101042.50;5074669;27;45479;-80